Time;durP1;ratioP1;P1;durP2;ratioP2;P2;SDS_P1;SDS_P2;PMS_P1;PMS_P2;Temp;Humidity;BMP_temperature;BMP_pressure;BME280_temperature;BME280_humidity;BME280_pressure;Samples;Min_cycle;Max_cycle;Signal;HPM_P1;HPM_P2
2023/08/29 00:01:34;;;;;;;;;;;17.60;91.70;;;;;;5047057;28;20007;-73
2023/08/29 00:03:59;;;;;;;;;;;17.60;91.80;;;;;;5047988;28;19917;-74
2023/08/29 00:06:25;;;;;;;;;;;17.50;91.60;;;;;;5046255;28;19913;-74
2023/08/29 00:08:50;;;;;;;;;;;17.50;91.70;;;;;;5047634;28;20537;-74
2023/08/29 00:11:19;;;;;;;;;;;17.50;91.80;;;;;;5036084;28;19920;-74
2023/08/29 00:13:44;;;;;;;;;;;17.50;91.90;;;;;;5027823;28;20318;-74
2023/08/29 00:16:16;;;;;;;;;;;17.50;91.80;;;;;;5027482;28;19971;-74
2023/08/29 00:18:42;;;;;;;;;;;17.50;91.80;;;;;;5035529;28;19917;-74
2023/08/29 00:21:07;;;;;;;;;;;17.50;91.80;;;;;;5047661;28;20031;-74
2023/08/29 00:23:33;;;;;;;;;;;17.40;91.80;;;;;;5047742;28;20003;-74
2023/08/29 00:25:59;;;;;;;;;;;17.40;91.90;;;;;;5046008;28;20027;-74
2023/08/29 00:28:24;;;;;;;;;;;17.40;91.90;;;;;;5047168;28;20341;-74
2023/08/29 00:30:50;;;;;;;;;;;17.40;91.90;;;;;;5047252;28;19962;-74
2023/08/29 00:33:16;;;;;;;;;;;17.30;91.90;;;;;;5047283;28;19919;-74
2023/08/29 00:35:41;;;;;;;;;;;17.30;92.00;;;;;;5046915;28;19936;-74
2023/08/29 00:38:09;;;;;;;;;;;17.30;92.00;;;;;;5047073;28;19964;-74
2023/08/29 00:40:35;;;;;;;;;;;17.30;92.00;;;;;;5046746;28;19952;-74
2023/08/29 00:43:00;;;;;;;;;;;17.20;92.10;;;;;;5047181;28;20420;-74
2023/08/29 00:45:28;;;;;;;;;;;17.30;92.00;;;;;;5048982;28;20396;-74
2023/08/29 00:47:54;;;;;;;;;;;17.20;92.10;;;;;;5050705;28;19919;-74
2023/08/29 00:50:19;;;;;;;;;;;17.20;92.00;;;;;;5050853;28;19916;-74
2023/08/29 00:52:45;;;;;;;;;;;17.20;92.10;;;;;;5050780;28;19987;-74
2023/08/29 00:55:10;;;;;;;;;;;17.20;92.10;;;;;;5039383;28;19936;-74
2023/08/29 00:57:36;;;;;;;;;;;17.10;92.10;;;;;;5034064;28;19913;-71
2023/08/29 01:00:03;;;;;;;;;;;17.20;92.10;;;;;;5043788;28;19917;-71
2023/08/29 01:02:29;;;;;;;;;;;17.10;92.20;;;;;;5048924;28;19915;-71
2023/08/29 01:04:54;;;;;;;;;;;17.10;92.40;;;;;;5049124;28;19917;-72
2023/08/29 01:07:20;;;;;;;;;;;17.10;92.20;;;;;;5049800;28;20470;-71
2023/08/29 01:09:45;;;;;;;;;;;17.10;92.10;;;;;;5050242;28;20604;-71
2023/08/29 01:12:18;;;;;;;;;;;17.10;92.20;;;;;;5050187;28;19975;-72
2023/08/29 01:15:10;;;;;;;;;;;17.10;92.20;;;;;;5050682;28;19919;-72
2023/08/29 01:17:39;;;;;;;;;;;17.00;92.50;;;;;;5044157;28;20039;-71
2023/08/29 01:20:06;;;;;;;;;;;17.00;92.10;;;;;;5050623;28;19913;-72
2023/08/29 01:22:38;;;;;;;;;;;17.00;92.50;;;;;;5050769;28;20433;-71
2023/08/29 01:25:06;;;;;;;;;;;17.00;92.30;;;;;;5050110;28;19917;-72
2023/08/29 01:27:34;;;;;;;;;;;17.00;92.30;;;;;;5050157;28;19935;-71
2023/08/29 01:30:00;;;;;;;;;;;17.00;92.30;;;;;;5044329;28;19967;-71
2023/08/29 01:32:26;;;;;;;;;;;17.00;92.40;;;;;;5049683;28;19920;-71
2023/08/29 01:34:52;;;;;;;;;;;17.00;92.30;;;;;;5050394;28;19920;-71
2023/08/29 01:37:17;;;;;;;;;;;16.90;92.30;;;;;;5046817;28;20019;-71
2023/08/29 01:39:43;;;;;;;;;;;16.90;92.30;;;;;;5048703;28;20785;-71
2023/08/29 01:42:08;;;;;;;;;;;16.90;92.30;;;;;;5049657;28;19917;-72
2023/08/29 01:44:34;;;;;;;;;;;16.90;92.30;;;;;;5048228;28;19913;-71
2023/08/29 01:46:59;;;;;;;;;;;16.90;92.30;;;;;;5048717;28;19913;-71
2023/08/29 01:49:25;;;;;;;;;;;16.90;92.30;;;;;;5049695;28;20015;-71
2023/08/29 01:51:51;;;;;;;;;;;16.90;92.40;;;;;;5049662;28;19913;-72
2023/08/29 01:54:16;;;;;;;;;;;16.90;92.40;;;;;;5048514;28;19920;-71
2023/08/29 01:56:42;;;;;;;;;;;16.90;92.40;;;;;;5036503;28;19920;-71
2023/08/29 01:59:08;;;;;;;;;;;16.80;92.40;;;;;;5047406;28;19920;-71
2023/08/29 02:01:34;;;;;;;;;;;16.80;92.40;;;;;;5049739;28;19916;-72
2023/08/29 02:03:59;;;;;;;;;;;16.80;92.30;;;;;;5049975;28;19913;-71
2023/08/29 02:06:25;;;;;;;;;;;16.80;92.40;;;;;;5049684;28;20695;-72
2023/08/29 02:08:50;;;;;;;;;;;16.80;92.40;;;;;;5049609;28;19912;-71
2023/08/29 02:11:16;;;;;;;;;;;16.80;92.40;;;;;;5049372;28;19963;-71
2023/08/29 02:13:41;;;;;;;;;;;16.80;92.40;;;;;;5049802;28;20485;-71
2023/08/29 02:16:07;;;;;;;;;;;16.80;92.40;;;;;;5047543;28;20711;-71
2023/08/29 02:18:32;;;;;;;;;;;16.80;92.40;;;;;;5047621;28;19923;-71
2023/08/29 02:20:58;;;;;;;;;;;16.80;92.50;;;;;;5048118;28;20427;-71
2023/08/29 02:23:23;;;;;;;;;;;16.70;92.40;;;;;;5049289;28;19956;-71
2023/08/29 02:25:59;;;;;;;;;;;16.70;92.40;;;;;;5049046;28;19909;-71
2023/08/29 02:28:25;;;;;;;;;;;16.70;92.50;;;;;;5049121;28;19919;-72
2023/08/29 02:30:50;;;;;;;;;;;16.70;92.40;;;;;;5048669;28;19913;-71
2023/08/29 02:33:16;;;;;;;;;;;16.70;92.50;;;;;;5048086;28;19939;-71
2023/08/29 02:35:41;;;;;;;;;;;16.70;92.50;;;;;;5049099;28;19908;-72
2023/08/29 02:38:07;;;;;;;;;;;16.70;92.50;;;;;;5048862;28;19909;-71
2023/08/29 02:40:33;;;;;;;;;;;16.70;92.50;;;;;;5048798;28;19963;-71
2023/08/29 02:42:58;;;;;;;;;;;16.70;92.50;;;;;;5047779;28;19920;-72
2023/08/29 02:45:23;;;;;;;;;;;16.60;92.50;;;;;;5049196;28;19917;-72
2023/08/29 02:47:49;;;;;;;;;;;16.60;92.50;;;;;;5048120;28;20331;-71
2023/08/29 02:50:14;;;;;;;;;;;16.60;92.50;;;;;;5048947;28;19924;-71
2023/08/29 02:52:40;;;;;;;;;;;16.60;92.50;;;;;;5048884;28;20003;-72
2023/08/29 02:55:06;;;;;;;;;;;16.60;92.50;;;;;;5043860;28;20020;-71
2023/08/29 02:57:31;;;;;;;;;;;16.60;92.50;;;;;;5032224;28;19913;-71
2023/08/29 02:59:57;;;;;;;;;;;16.60;92.50;;;;;;5041448;28;19924;-71
2023/08/29 03:02:23;;;;;;;;;;;16.60;92.50;;;;;;5047310;28;19913;-71
2023/08/29 03:04:48;;;;;;;;;;;16.60;92.60;;;;;;5047205;28;20444;-71
2023/08/29 03:07:14;;;;;;;;;;;16.60;92.60;;;;;;5047194;28;20535;-71
2023/08/29 03:09:39;;;;;;;;;;;16.50;92.50;;;;;;5046839;28;19924;-73
2023/08/29 03:12:05;;;;;;;;;;;16.50;92.50;;;;;;5047251;28;19996;-71
2023/08/29 03:14:30;;;;;;;;;;;16.50;92.50;;;;;;5047068;28;19917;-71
2023/08/29 03:16:57;;;;;;;;;;;16.50;92.60;;;;;;5048006;28;19908;-72
2023/08/29 03:19:22;;;;;;;;;;;16.50;92.60;;;;;;5048134;28;19948;-71
2023/08/29 03:21:48;;;;;;;;;;;16.50;92.60;;;;;;5048364;28;19955;-74
2023/08/29 03:24:13;;;;;;;;;;;16.50;92.90;;;;;;5047255;28;19917;-74
2023/08/29 03:26:39;;;;;;;;;;;16.40;92.50;;;;;;5037356;28;19913;-74
2023/08/29 03:29:04;;;;;;;;;;;16.40;92.60;;;;;;5046426;28;19913;-74
2023/08/29 03:31:30;;;;;;;;;;;16.50;92.60;;;;;;5048000;28;19917;-74
2023/08/29 03:33:55;;;;;;;;;;;16.40;92.60;;;;;;5048060;28;20015;-74
2023/08/29 03:36:21;;;;;;;;;;;16.40;92.60;;;;;;5047860;28;19917;-74
2023/08/29 03:38:46;;;;;;;;;;;16.40;92.60;;;;;;5047505;28;20365;-74
2023/08/29 03:41:12;;;;;;;;;;;16.40;92.60;;;;;;5046450;28;19914;-74
2023/08/29 03:43:37;;;;;;;;;;;16.40;92.60;;;;;;5026800;28;19959;-74
2023/08/29 03:46:03;;;;;;;;;;;16.30;92.60;;;;;;5027891;28;19913;-74
2023/08/29 03:48:29;;;;;;;;;;;16.40;92.60;;;;;;5026412;28;20413;-74
2023/08/29 03:50:54;;;;;;;;;;;16.30;92.60;;;;;;5042667;28;19919;-74
2023/08/29 03:53:21;;;;;;;;;;;16.40;92.60;;;;;;5046395;28;19959;-74
2023/08/29 03:55:47;;;;;;;;;;;16.30;92.60;;;;;;5039405;28;19920;-74
2023/08/29 03:58:13;;;;;;;;;;;16.40;92.60;;;;;;5031248;28;19913;-74
2023/08/29 04:00:38;;;;;;;;;;;16.40;92.60;;;;;;5045763;28;19913;-74
2023/08/29 04:03:06;;;;;;;;;;;16.30;92.60;;;;;;5046442;28;19909;-74
2023/08/29 04:05:32;;;;;;;;;;;16.30;92.60;;;;;;5047971;28;19913;-74
2023/08/29 04:07:58;;;;;;;;;;;16.30;92.60;;;;;;5047475;28;19913;-74
2023/08/29 04:10:23;;;;;;;;;;;16.30;92.60;;;;;;5047730;28;20285;-74
2023/08/29 04:12:49;;;;;;;;;;;16.30;92.60;;;;;;5047913;28;19913;-74
2023/08/29 04:15:14;;;;;;;;;;;16.30;92.70;;;;;;5047887;28;19966;-74
2023/08/29 04:17:40;;;;;;;;;;;16.30;92.70;;;;;;5047585;28;20328;-74
2023/08/29 04:20:09;;;;;;;;;;;16.30;92.70;;;;;;5048272;28;19912;-74
2023/08/29 04:22:35;;;;;;;;;;;16.30;92.70;;;;;;5057206;28;19904;-71
2023/08/29 04:25:05;;;;;;;;;;;16.30;92.70;;;;;;5051325;28;19912;-71
2023/08/29 04:27:30;;;;;;;;;;;16.30;92.70;;;;;;5051019;28;19924;-71
2023/08/29 04:29:56;;;;;;;;;;;16.30;92.70;;;;;;5051544;28;19999;-72
2023/08/29 04:32:22;;;;;;;;;;;16.20;92.70;;;;;;5051266;28;19920;-71
2023/08/29 04:34:50;;;;;;;;;;;16.20;92.80;;;;;;5050970;28;21586;-72
2023/08/29 04:37:15;;;;;;;;;;;16.20;92.70;;;;;;5051476;28;19998;-71
2023/08/29 04:39:41;;;;;;;;;;;16.20;92.70;;;;;;5051211;28;19916;-74
2023/08/29 04:42:06;;;;;;;;;;;16.20;92.70;;;;;;5049728;28;20350;-74
2023/08/29 04:44:33;;;;;;;;;;;16.20;92.70;;;;;;5051400;28;19916;-71
2023/08/29 04:46:59;;;;;;;;;;;16.10;92.70;;;;;;5051155;28;20373;-71
2023/08/29 04:49:24;;;;;;;;;;;16.20;92.80;;;;;;5050585;28;19959;-71
2023/08/29 04:51:50;;;;;;;;;;;16.20;92.70;;;;;;5049893;28;20289;-72
2023/08/29 04:54:15;;;;;;;;;;;16.10;92.70;;;;;;5050883;28;19909;-71
2023/08/29 04:56:41;;;;;;;;;;;16.20;92.80;;;;;;5038422;28;20361;-71
2023/08/29 04:59:06;;;;;;;;;;;16.10;92.80;;;;;;5049333;28;19913;-72
2023/08/29 05:01:32;;;;;;;;;;;16.20;92.80;;;;;;5050690;28;19917;-71
2023/08/29 05:03:57;;;;;;;;;;;16.20;92.70;;;;;;5049127;28;20506;-71
2023/08/29 05:06:25;;;;;;;;;;;16.10;92.70;;;;;;5050974;28;19919;-72
2023/08/29 05:08:50;;;;;;;;;;;16.10;92.80;;;;;;5049461;28;19998;-71
2023/08/29 05:11:16;;;;;;;;;;;16.10;92.80;;;;;;5049338;28;19916;-71
2023/08/29 05:13:41;;;;;;;;;;;16.10;92.80;;;;;;5045748;28;19921;-71
2023/08/29 05:16:07;;;;;;;;;;;16.10;92.80;;;;;;5040172;28;19917;-71
2023/08/29 05:18:32;;;;;;;;;;;16.10;92.70;;;;;;5042700;28;19920;-72
2023/08/29 05:20:58;;;;;;;;;;;16.10;92.80;;;;;;5031624;28;19913;-71
2023/08/29 05:23:23;;;;;;;;;;;16.10;92.70;;;;;;5050261;28;19998;-71
2023/08/29 05:25:49;;;;;;;;;;;16.10;92.80;;;;;;5048953;28;19920;-71
2023/08/29 05:28:15;;;;;;;;;;;16.10;92.80;;;;;;5048074;28;19953;-71
2023/08/29 05:30:40;;;;;;;;;;;16.10;92.80;;;;;;5049650;28;19960;-71
2023/08/29 05:33:06;;;;;;;;;;;16.10;92.80;;;;;;5049461;28;19913;-71
2023/08/29 05:35:31;;;;;;;;;;;16.10;92.80;;;;;;5033404;28;19913;-72
2023/08/29 05:37:57;;;;;;;;;;;16.10;92.80;;;;;;5038347;28;19919;-72
2023/08/29 05:40:22;;;;;;;;;;;16.10;92.80;;;;;;5050065;28;19925;-71
2023/08/29 05:42:48;;;;;;;;;;;16.10;92.80;;;;;;5048372;28;20365;-72
2023/08/29 05:45:13;;;;;;;;;;;16.10;92.80;;;;;;5046816;28;19940;-71
2023/08/29 05:47:39;;;;;;;;;;;16.10;92.80;;;;;;5037997;28;20494;-71
2023/08/29 05:50:05;;;;;;;;;;;16.10;92.80;;;;;;5039812;28;20692;-71
2023/08/29 05:52:31;;;;;;;;;;;16.10;92.80;;;;;;5039879;28;19917;-71
2023/08/29 05:54:57;;;;;;;;;;;16.10;92.80;;;;;;5043173;28;20296;-71
2023/08/29 05:57:23;;;;;;;;;;;16.20;92.80;;;;;;5043400;28;19920;-71
2023/08/29 05:59:48;;;;;;;;;;;16.10;92.80;;;;;;5042385;28;19916;-71
2023/08/29 06:02:14;;;;;;;;;;;16.20;92.80;;;;;;5038366;28;19912;-71
2023/08/29 06:04:39;;;;;;;;;;;16.20;92.70;;;;;;5039896;28;20408;-71
2023/08/29 06:07:05;;;;;;;;;;;16.20;92.80;;;;;;5040167;28;19913;-71
2023/08/29 06:09:32;;;;;;;;;;;16.20;92.70;;;;;;5038419;28;19924;-71
2023/08/29 06:11:59;;;;;;;;;;;16.30;92.70;;;;;;5041634;28;20348;-72
2023/08/29 06:14:24;;;;;;;;;;;16.20;92.70;;;;;;5041020;28;20386;-71
2023/08/29 06:16:50;;;;;;;;;;;16.20;92.70;;;;;;5037156;28;20015;-71
2023/08/29 06:19:16;;;;;;;;;;;16.30;92.80;;;;;;5039149;28;19925;-71
2023/08/29 06:21:42;;;;;;;;;;;16.30;92.70;;;;;;5038558;28;19919;-71
2023/08/29 06:24:07;;;;;;;;;;;16.30;93.00;;;;;;5038851;28;20019;-72
2023/08/29 06:26:33;;;;;;;;;;;16.40;92.70;;;;;;5038303;28;19924;-71
2023/08/29 06:28:58;;;;;;;;;;;16.40;92.70;;;;;;5042354;28;19928;-71
2023/08/29 06:31:24;;;;;;;;;;;16.40;92.70;;;;;;5038008;28;20444;-71
2023/08/29 06:33:49;;;;;;;;;;;16.40;92.70;;;;;;5043644;28;19917;-71
2023/08/29 06:36:15;;;;;;;;;;;16.40;92.70;;;;;;5048356;28;20380;-71
2023/08/29 06:38:42;;;;;;;;;;;16.40;92.70;;;;;;5047214;28;19920;-71
2023/08/29 06:41:08;;;;;;;;;;;16.40;92.70;;;;;;5048735;28;20175;-71
2023/08/29 06:43:34;;;;;;;;;;;16.50;92.70;;;;;;5048250;28;19978;-71
2023/08/29 06:45:59;;;;;;;;;;;16.50;92.70;;;;;;5048565;28;20690;-71
2023/08/29 06:48:25;;;;;;;;;;;16.50;92.70;;;;;;5048330;28;19942;-71
2023/08/29 06:50:50;;;;;;;;;;;16.50;92.70;;;;;;5046892;28;19943;-71
2023/08/29 06:53:16;;;;;;;;;;;16.60;92.70;;;;;;5048846;28;19920;-72
2023/08/29 06:55:41;;;;;;;;;;;16.60;92.70;;;;;;5048357;28;19913;-71
2023/08/29 06:58:07;;;;;;;;;;;16.60;92.70;;;;;;5047814;28;20008;-71
2023/08/29 07:00:33;;;;;;;;;;;16.60;92.70;;;;;;5048307;28;20010;-71
2023/08/29 07:02:59;;;;;;;;;;;16.70;93.00;;;;;;5048194;28;20357;-71
2023/08/29 07:05:24;;;;;;;;;;;16.70;92.70;;;;;;5048126;28;19920;-71
2023/08/29 07:07:50;;;;;;;;;;;16.70;92.70;;;;;;5032358;28;20055;-71
2023/08/29 07:10:16;;;;;;;;;;;16.70;92.70;;;;;;5029361;28;20321;-71
2023/08/29 07:12:42;;;;;;;;;;;16.70;92.60;;;;;;5042119;28;20006;-71
2023/08/29 07:15:08;;;;;;;;;;;16.70;92.60;;;;;;5046734;28;19912;-72
2023/08/29 07:17:33;;;;;;;;;;;16.80;92.70;;;;;;5048208;28;19948;-71
2023/08/29 07:19:59;;;;;;;;;;;16.80;92.70;;;;;;5048563;28;20272;-71
2023/08/29 07:22:24;;;;;;;;;;;16.80;92.60;;;;;;5048110;28;19970;-71
2023/08/29 07:24:50;;;;;;;;;;;16.80;92.60;;;;;;5048425;28;20004;-71
2023/08/29 07:27:16;;;;;;;;;;;16.80;92.60;;;;;;5046747;28;19908;-71
2023/08/29 07:29:42;;;;;;;;;;;16.90;92.70;;;;;;5046512;28;20003;-71
2023/08/29 07:32:07;;;;;;;;;;;16.90;92.60;;;;;;5048399;28;19913;-71
2023/08/29 07:34:32;;;;;;;;;;;16.90;92.60;;;;;;5048134;28;19920;-71
2023/08/29 07:36:58;;;;;;;;;;;16.90;92.50;;;;;;5048211;28;19990;-72
2023/08/29 07:39:24;;;;;;;;;;;16.90;92.80;;;;;;5047460;28;19921;-71
2023/08/29 07:41:50;;;;;;;;;;;17.00;92.60;;;;;;5048036;28;20131;-71
2023/08/29 07:44:15;;;;;;;;;;;17.00;92.60;;;;;;5048015;28;19909;-72
2023/08/29 07:46:41;;;;;;;;;;;17.00;92.60;;;;;;5047761;28;19947;-71
2023/08/29 07:49:13;;;;;;;;;;;17.00;92.50;;;;;;5047696;28;19920;-71
2023/08/29 07:51:41;;;;;;;;;;;17.00;92.50;;;;;;5048513;28;19920;-71
2023/08/29 07:54:07;;;;;;;;;;;17.00;92.50;;;;;;5047134;28;20370;-72
2023/08/29 07:56:33;;;;;;;;;;;17.10;92.50;;;;;;5035970;28;19960;-71
2023/08/29 07:58:58;;;;;;;;;;;17.10;92.60;;;;;;5036854;28;20381;-71
2023/08/29 08:01:24;;;;;;;;;;;17.10;92.40;;;;;;5047836;28;19909;-71
2023/08/29 08:03:49;;;;;;;;;;;17.20;92.40;;;;;;5048161;28;19948;-72
2023/08/29 08:06:15;;;;;;;;;;;17.20;92.40;;;;;;5047766;28;20017;-71
2023/08/29 08:08:40;;;;;;;;;;;17.20;92.40;;;;;;5046463;28;20533;-72
2023/08/29 08:11:06;;;;;;;;;;;17.20;92.40;;;;;;5047540;28;20365;-71
2023/08/29 08:13:32;;;;;;;;;;;17.20;92.40;;;;;;5046289;28;19912;-71
2023/08/29 08:15:58;;;;;;;;;;;17.20;92.40;;;;;;5047830;28;20016;-71
2023/08/29 08:18:23;;;;;;;;;;;17.30;92.30;;;;;;5047580;28;19986;-71
2023/08/29 08:20:49;;;;;;;;;;;17.40;92.30;;;;;;5047587;28;19960;-72
2023/08/29 08:23:14;;;;;;;;;;;17.40;92.20;;;;;;5046486;28;19913;-71
2023/08/29 08:25:40;;;;;;;;;;;17.40;92.20;;;;;;5047697;28;19912;-71
2023/08/29 08:28:06;;;;;;;;;;;17.40;92.20;;;;;;5046842;28;19923;-72
2023/08/29 08:30:32;;;;;;;;;;;17.50;92.20;;;;;;5047906;28;20797;-72
2023/08/29 08:32:57;;;;;;;;;;;17.50;92.20;;;;;;5047797;28;20519;-71
2023/08/29 08:35:23;;;;;;;;;;;17.50;92.10;;;;;;5047695;28;19912;-71
2023/08/29 08:37:48;;;;;;;;;;;17.60;92.20;;;;;;5045838;28;20370;-71
2023/08/29 08:40:15;;;;;;;;;;;17.60;92.10;;;;;;5047593;28;19919;-71
2023/08/29 08:42:40;;;;;;;;;;;17.60;92.10;;;;;;5046458;28;20366;-71
2023/08/29 08:45:06;;;;;;;;;;;17.70;92.00;;;;;;5047300;28;19939;-71
2023/08/29 08:47:35;;;;;;;;;;;17.70;92.10;;;;;;5047295;28;19939;-71
2023/08/29 08:50:01;;;;;;;;;;;17.80;92.00;;;;;;5047646;28;19971;-71
2023/08/29 08:52:27;;;;;;;;;;;17.80;92.10;;;;;;5047639;28;19909;-71
2023/08/29 08:54:53;;;;;;;;;;;17.90;92.00;;;;;;5042939;28;19921;-71
2023/08/29 08:57:18;;;;;;;;;;;17.80;91.90;;;;;;5042427;28;19912;-72
2023/08/29 08:59:44;;;;;;;;;;;17.90;91.90;;;;;;5045670;28;19923;-71
2023/08/29 09:02:10;;;;;;;;;;;18.00;92.00;;;;;;5045939;28;19917;-71
2023/08/29 09:04:36;;;;;;;;;;;18.00;91.90;;;;;;5047562;28;20575;-71
2023/08/29 09:07:01;;;;;;;;;;;18.10;91.90;;;;;;5048994;28;20008;-71
2023/08/29 09:09:27;;;;;;;;;;;18.20;91.80;;;;;;5050586;28;19909;-72
2023/08/29 09:11:53;;;;;;;;;;;18.20;91.80;;;;;;5050770;28;19924;-71
2023/08/29 09:14:19;;;;;;;;;;;18.20;91.70;;;;;;5050574;28;20374;-72
2023/08/29 09:16:45;;;;;;;;;;;18.30;91.70;;;;;;5050416;28;19913;-71
2023/08/29 09:19:13;;;;;;;;;;;18.40;91.60;;;;;;5043146;28;19920;-72
2023/08/29 09:21:41;;;;;;;;;;;18.40;91.50;;;;;;5043605;28;20288;-72
2023/08/29 09:24:10;;;;;;;;;;;18.50;91.50;;;;;;5041463;28;20412;-72
2023/08/29 09:26:35;;;;;;;;;;;18.60;91.50;;;;;;5050064;28;19920;-72
2023/08/29 09:29:14;;;;;;;;;;;18.60;91.50;;;;;;5047958;28;20293;-72
2023/08/29 09:31:40;;;;;;;;;;;18.70;91.40;;;;;;5049935;28;19913;-71
2023/08/29 09:34:06;;;;;;;;;;;18.70;91.30;;;;;;5049783;28;19909;-71
2023/08/29 09:36:32;;;;;;;;;;;18.80;91.40;;;;;;5048439;28;19912;-71
2023/08/29 09:38:58;;;;;;;;;;;18.80;91.40;;;;;;5048398;28;20377;-71
2023/08/29 09:41:23;;;;;;;;;;;18.90;91.20;;;;;;5049413;28;19921;-71
2023/08/29 09:43:49;;;;;;;;;;;18.90;91.20;;;;;;5049768;28;19913;-71
2023/08/29 09:46:20;;;;;;;;;;;18.90;91.10;;;;;;5049569;28;20346;-71
2023/08/29 09:48:55;;;;;;;;;;;19.00;91.20;;;;;;5049190;28;19951;-71
2023/08/29 09:51:22;;;;;;;;;;;19.00;91.10;;;;;;5049409;28;19917;-71
2023/08/29 09:53:49;;;;;;;;;;;19.00;91.20;;;;;;5044198;28;19917;-71
2023/08/29 09:56:15;;;;;;;;;;;19.10;91.20;;;;;;5038066;28;19913;-71
2023/08/29 09:58:41;;;;;;;;;;;19.10;91.00;;;;;;5033411;28;19924;-72
2023/08/29 10:01:08;;;;;;;;;;;19.20;91.00;;;;;;5049338;28;19975;-71
2023/08/29 10:03:34;;;;;;;;;;;19.20;91.00;;;;;;5049280;28;19912;-72
2023/08/29 10:06:05;;;;;;;;;;;19.30;91.00;;;;;;5048550;28;19917;-71
2023/08/29 10:08:33;;;;;;;;;;;19.30;91.00;;;;;;5028975;28;20584;-71
2023/08/29 10:10:59;;;;;;;;;;;19.30;90.90;;;;;;5029277;28;19941;-72
2023/08/29 10:13:25;;;;;;;;;;;19.40;90.90;;;;;;5029165;28;20281;-71
2023/08/29 10:15:51;;;;;;;;;;;19.40;90.80;;;;;;5035182;28;19912;-71
2023/08/29 10:18:18;;;;;;;;;;;19.50;90.80;;;;;;5038585;28;19913;-72
2023/08/29 10:20:45;;;;;;;;;;;19.50;90.70;;;;;;5036201;28;19920;-71
2023/08/29 10:23:11;;;;;;;;;;;19.60;90.70;;;;;;5048991;28;19909;-71
2023/08/29 10:25:38;;;;;;;;;;;19.60;90.70;;;;;;5048974;28;19913;-71
2023/08/29 10:28:05;;;;;;;;;;;19.70;90.70;;;;;;5048480;28;19932;-71
2023/08/29 10:30:31;;;;;;;;;;;19.70;90.60;;;;;;5048777;28;19909;-71
2023/08/29 10:32:57;;;;;;;;;;;19.80;90.60;;;;;;5048549;28;19916;-71
2023/08/29 10:35:23;;;;;;;;;;;19.80;90.50;;;;;;5048528;28;20317;-72
2023/08/29 10:37:52;;;;;;;;;;;19.90;90.50;;;;;;5048265;28;19952;-72
2023/08/29 10:40:18;;;;;;;;;;;19.90;90.40;;;;;;5048623;28;19913;-72
2023/08/29 10:42:54;;;;;;;;;;;19.90;90.30;;;;;;5048580;28;19982;-72
2023/08/29 10:45:21;;;;;;;;;;;19.90;90.30;;;;;;5048066;28;20290;-72
2023/08/29 10:47:46;;;;;;;;;;;20.00;90.30;;;;;;5047114;28;19932;-71
2023/08/29 10:50:16;;;;;;;;;;;20.10;90.30;;;;;;5046612;28;19964;-71
2023/08/29 10:52:41;;;;;;;;;;;20.20;90.20;;;;;;5048565;28;20396;-71
2023/08/29 10:55:20;;;;;;;;;;;20.20;90.20;;;;;;5046414;28;19913;-72
2023/08/29 10:57:46;;;;;;;;;;;20.20;90.20;;;;;;5032263;28;19912;-72
2023/08/29 11:00:34;;;;;;;;;;;20.20;90.10;;;;;;5042653;28;19994;-72
2023/08/29 11:03:00;;;;;;;;;;;20.30;90.10;;;;;;5047848;28;20408;-72
2023/08/29 11:05:27;;;;;;;;;;;20.30;89.90;;;;;;5047884;28;19917;-71
2023/08/29 11:07:53;;;;;;;;;;;20.30;89.90;;;;;;5031427;28;19913;-71
2023/08/29 11:10:22;;;;;;;;;;;20.50;89.80;;;;;;5028206;28;19920;-71
2023/08/29 11:13:06;;;;;;;;;;;20.60;89.70;;;;;;5027987;28;19960;-72
2023/08/29 11:15:49;;;;;;;;;;;20.60;89.30;;;;;;5030949;28;19921;-72
2023/08/29 11:18:18;;;;;;;;;;;20.70;89.20;;;;;;5041708;28;20981;-72
2023/08/29 11:20:43;;;;;;;;;;;20.80;88.90;;;;;;5027356;28;19960;-71
2023/08/29 11:23:11;;;;;;;;;;;20.90;88.90;;;;;;5027644;28;19952;-71
2023/08/29 11:25:37;;;;;;;;;;;20.90;88.60;;;;;;5027585;28;19912;-71
2023/08/29 11:28:03;;;;;;;;;;;21.00;88.30;;;;;;5046132;28;19982;-71
2023/08/29 11:30:28;;;;;;;;;;;21.10;88.30;;;;;;5044777;28;20362;-71
2023/08/29 11:32:54;;;;;;;;;;;21.20;88.00;;;;;;5047262;28;19913;-72
2023/08/29 11:35:20;;;;;;;;;;;21.30;88.90;;;;;;5047322;28;20847;-72
2023/08/29 11:37:45;;;;;;;;;;;21.30;87.90;;;;;;5047122;28;19958;-72
2023/08/29 11:40:11;;;;;;;;;;;21.40;88.00;;;;;;5045783;28;19913;-72
2023/08/29 11:42:37;;;;;;;;;;;21.40;87.80;;;;;;5046140;28;19913;-71
2023/08/29 11:45:06;;;;;;;;;;;21.50;87.50;;;;;;5047252;28;19956;-72
2023/08/29 11:47:32;;;;;;;;;;;21.60;87.50;;;;;;5044789;28;19909;-72
2023/08/29 11:49:57;;;;;;;;;;;21.60;87.50;;;;;;5047257;28;19916;-71
2023/08/29 11:52:23;;;;;;;;;;;21.60;87.10;;;;;;5047308;28;19912;-72
2023/08/29 11:54:52;;;;;;;;;;;21.70;87.40;;;;;;5046715;28;19959;-72
2023/08/29 11:57:18;;;;;;;;;;;21.70;87.90;;;;;;5031284;28;19917;-72
2023/08/29 11:59:44;;;;;;;;;;;21.70;87.80;;;;;;5039745;28;19921;-71
2023/08/29 12:02:11;;;;;;;;;;;21.70;88.30;;;;;;5047064;28;19917;-72
2023/08/29 12:04:41;;;;;;;;;;;21.70;88.30;;;;;;5046778;28;19909;-72
2023/08/29 12:07:13;;;;;;;;;;;21.70;87.90;;;;;;5037630;28;19963;-72
2023/08/29 12:09:43;;;;;;;;;;;21.70;88.10;;;;;;5026697;28;19913;-72
2023/08/29 12:12:09;;;;;;;;;;;21.70;88.30;;;;;;5026795;28;20009;-72
2023/08/29 12:14:51;;;;;;;;;;;21.70;88.60;;;;;;5036451;28;19971;-72
2023/08/29 12:17:17;;;;;;;;;;;21.70;88.90;;;;;;5037729;28;19913;-72
2023/08/29 12:19:42;;;;;;;;;;;21.70;87.90;;;;;;5061829;28;19991;-72
2023/08/29 12:22:08;;;;;;;;;;;21.80;87.90;;;;;;5046755;28;19916;-72
2023/08/29 12:24:33;;;;;;;;;;;21.80;87.40;;;;;;5046960;28;20306;-72
2023/08/29 12:26:59;;;;;;;;;;;21.80;88.10;;;;;;5045729;28;19927;-72
2023/08/29 12:29:25;;;;;;;;;;;21.80;86.80;;;;;;5045465;28;19935;-72
2023/08/29 12:31:50;;;;;;;;;;;21.80;88.20;;;;;;5046441;28;19971;-72
2023/08/29 12:34:16;;;;;;;;;;;21.90;88.30;;;;;;5046331;28;19908;-71
2023/08/29 12:36:41;;;;;;;;;;;21.80;88.40;;;;;;5046248;28;19909;-72
2023/08/29 12:39:08;;;;;;;;;;;21.80;88.20;;;;;;5046182;28;19924;-72
2023/08/29 12:41:35;;;;;;;;;;;21.80;87.70;;;;;;5049516;28;19913;-72
2023/08/29 12:44:01;;;;;;;;;;;21.70;88.20;;;;;;5050676;28;19920;-72
2023/08/29 12:46:26;;;;;;;;;;;21.70;88.30;;;;;;5050689;28;19917;-72
2023/08/29 12:48:52;;;;;;;;;;;21.70;88.70;;;;;;5049581;28;19999;-72
2023/08/29 12:51:17;;;;;;;;;;;21.70;88.30;;;;;;5049289;28;20127;-72
2023/08/29 12:53:44;;;;;;;;;;;21.70;88.50;;;;;;5051210;28;19913;-72
2023/08/29 12:56:09;;;;;;;;;;;21.70;88.50;;;;;;5034867;28;19909;-72
2023/08/29 12:58:35;;;;;;;;;;;21.70;88.50;;;;;;5033679;28;19967;-72
2023/08/29 13:01:00;;;;;;;;;;;21.80;88.50;;;;;;5050715;28;19966;-72
2023/08/29 13:03:26;;;;;;;;;;;21.80;88.10;;;;;;5049960;28;19963;-72
2023/08/29 13:05:52;;;;;;;;;;;21.90;87.60;;;;;;5050553;28;19916;-72
2023/08/29 13:08:19;;;;;;;;;;;21.90;87.40;;;;;;5029658;28;19923;-72
2023/08/29 13:10:45;;;;;;;;;;;22.00;87.10;;;;;;5030551;28;20536;-72
2023/08/29 13:13:11;;;;;;;;;;;22.00;87.10;;;;;;5030728;28;19924;-72
2023/08/29 13:15:37;;;;;;;;;;;22.00;87.50;;;;;;5030885;28;19996;-72
2023/08/29 13:18:03;;;;;;;;;;;22.00;86.90;;;;;;5037132;28;20020;-72
2023/08/29 13:20:28;;;;;;;;;;;22.00;86.70;;;;;;5048900;28;19920;-72
2023/08/29 13:22:54;;;;;;;;;;;22.00;86.70;;;;;;5050454;28;20011;-72
2023/08/29 13:25:20;;;;;;;;;;;22.10;86.80;;;;;;5050776;28;19920;-73
2023/08/29 13:27:48;;;;;;;;;;;22.20;86.80;;;;;;5049952;28;20268;-72
2023/08/29 13:30:14;;;;;;;;;;;22.40;85.90;;;;;;5050212;28;19956;-72
2023/08/29 13:32:40;;;;;;;;;;;22.40;85.60;;;;;;5050511;28;20447;-72
2023/08/29 13:35:06;;;;;;;;;;;22.40;85.90;;;;;;5048991;28;19912;-72
2023/08/29 13:37:31;;;;;;;;;;;22.50;85.50;;;;;;5050234;28;20239;-73
2023/08/29 13:39:57;;;;;;;;;;;22.50;85.00;;;;;;5048950;28;20293;-73
2023/08/29 13:42:23;;;;;;;;;;;22.60;84.60;;;;;;5049944;28;19916;-72
2023/08/29 13:44:49;;;;;;;;;;;22.70;84.50;;;;;;5049232;28;19913;-72
2023/08/29 13:47:15;;;;;;;;;;;22.70;85.30;;;;;;5049687;28;19913;-72
2023/08/29 13:49:40;;;;;;;;;;;22.70;85.20;;;;;;5049538;28;19955;-72
2023/08/29 13:52:08;;;;;;;;;;;22.80;84.60;;;;;;5044063;28;20334;-72
2023/08/29 13:54:33;;;;;;;;;;;22.80;84.90;;;;;;5029946;28;19956;-72
2023/08/29 13:56:59;;;;;;;;;;;22.80;84.50;;;;;;5036075;28;20635;-72
2023/08/29 13:59:24;;;;;;;;;;;22.90;85.20;;;;;;5037369;28;19978;-72
2023/08/29 14:01:50;;;;;;;;;;;22.80;85.50;;;;;;5050105;28;19916;-72
2023/08/29 14:04:15;;;;;;;;;;;22.80;85.50;;;;;;5049378;28;19916;-73
2023/08/29 14:06:41;;;;;;;;;;;22.70;84.90;;;;;;5043277;28;19974;-72
2023/08/29 14:09:07;;;;;;;;;;;22.70;85.90;;;;;;5049190;28;19955;-72
2023/08/29 14:11:32;;;;;;;;;;;22.80;84.90;;;;;;5050141;28;19912;-72